createdAt,value
2019-02-28T00:02:28.505Z,15.69
2019-02-28T00:05:29.912Z,15.69
2019-02-28T00:08:31.289Z,15.63
2019-02-28T00:11:32.799Z,15.63
2019-02-28T00:14:34.205Z,15.56
2019-02-28T00:17:35.675Z,15.56
2019-02-28T00:20:37.160Z,15.50
2019-02-28T00:23:38.583Z,15.44
2019-02-28T00:26:39.974Z,15.44
2019-02-28T00:29:41.570Z,15.38
2019-02-28T00:32:42.994Z,15.38
2019-02-28T00:35:45.413Z,15.31
2019-02-28T00:38:46.873Z,15.25
2019-02-28T00:41:48.255Z,15.25
2019-02-28T00:44:49.674Z,15.19
2019-02-28T00:47:51.053Z,15.13
2019-02-28T00:50:52.423Z,15.13
2019-02-28T00:53:53.928Z,15.06
2019-02-28T00:56:55.303Z,15.06
2019-02-28T00:59:56.723Z,15.00
2019-02-28T01:02:58.183Z,15.00
2019-02-28T01:06:01.057Z,14.94
2019-02-28T01:09:02.666Z,14.94
2019-02-28T01:12:05.844Z,14.94
2019-02-28T01:15:10.029Z,14.87
2019-02-28T01:18:11.539Z,14.81
2019-02-28T01:21:12.968Z,14.81
2019-02-28T01:24:14.380Z,14.75
2019-02-28T01:27:17.384Z,14.75
2019-02-28T01:30:19.220Z,14.69
2019-02-28T01:33:24.551Z,14.69
2019-02-28T01:36:24.131Z,14.63
2019-02-28T01:39:25.502Z,14.63
2019-02-28T01:42:26.907Z,14.56
2019-02-28T01:45:28.412Z,14.50
2019-02-28T01:48:29.808Z,14.50
2019-02-28T01:51:35.710Z,14.50
2019-02-28T01:54:34.257Z,14.44
2019-02-28T01:57:35.708Z,14.38
2019-02-28T02:00:37.145Z,14.38
2019-02-28T02:03:40.687Z,14.31
2019-02-28T02:06:42.736Z,14.31
2019-02-28T02:09:46.179Z,14.25
2019-02-28T02:12:47.507Z,14.25
2019-02-28T02:15:51.417Z,14.19
2019-02-28T02:18:52.270Z,14.19
2019-02-28T02:21:53.786Z,14.13
2019-02-28T02:24:55.174Z,14.06
2019-02-28T02:27:56.566Z,14.06
2019-02-28T02:30:58.080Z,14.00
2019-02-28T02:33:59.462Z,13.94
2019-02-28T02:37:00.905Z,13.94
2019-02-28T02:40:02.337Z,13.88
2019-02-28T02:43:03.850Z,13.88
2019-02-28T02:46:05.266Z,13.81
2019-02-28T02:49:06.655Z,13.81
2019-02-28T02:52:08.110Z,13.75
2019-02-28T02:55:09.621Z,13.75
2019-02-28T02:58:11.040Z,13.69
2019-02-28T03:01:12.437Z,13.69
2019-02-28T03:04:21.509Z,13.62
2019-02-28T03:07:22.944Z,13.56
2019-02-28T03:10:21.039Z,13.56
2019-02-28T03:13:22.445Z,13.56
2019-02-28T03:16:24.363Z,13.50
2019-02-28T03:19:33.094Z,13.44
2019-02-28T03:22:30.400Z,13.44
2019-02-28T03:25:32.134Z,13.38
2019-02-28T03:28:33.553Z,13.38
2019-02-28T03:31:34.972Z,13.31
2019-02-28T03:34:36.591Z,13.31
2019-02-28T03:37:37.951Z,13.25
2019-02-28T03:40:40.245Z,13.25
2019-02-28T03:43:44.188Z,13.19
2019-02-28T03:46:46.913Z,13.19
2019-02-28T03:49:50.257Z,13.13
2019-02-28T03:52:51.779Z,13.06
2019-02-28T03:55:53.274Z,13.06
2019-02-28T03:58:54.718Z,13.06
2019-02-28T04:01:56.121Z,13.00
2019-02-28T04:04:57.507Z,12.94
2019-02-28T04:07:58.899Z,12.94
2019-02-28T04:11:00.319Z,12.88
2019-02-28T04:14:01.726Z,12.88
2019-02-28T04:17:03.134Z,12.81
2019-02-28T04:20:05.296Z,12.75
2019-02-28T04:23:06.846Z,12.75
2019-02-28T04:26:08.296Z,12.75
2019-02-28T04:29:09.695Z,12.69
2019-02-28T04:32:11.124Z,12.63
2019-02-28T04:35:12.741Z,12.63
2019-02-28T04:38:14.117Z,12.56
2019-02-28T04:41:15.555Z,12.56
2019-02-28T04:44:18.268Z,12.50
2019-02-28T04:47:20.063Z,12.50
2019-02-28T04:50:21.522Z,12.44
2019-02-28T04:53:22.990Z,12.37
2019-02-28T04:56:24.396Z,12.37
2019-02-28T04:59:25.802Z,12.37
2019-02-28T05:02:27.212Z,12.31
2019-02-28T05:05:28.726Z,12.31
2019-02-28T05:08:31.194Z,12.25
2019-02-28T05:11:33.706Z,12.25
2019-02-28T05:14:35.382Z,12.19
2019-02-28T05:17:37.124Z,12.13
2019-02-28T05:20:38.548Z,12.13
2019-02-28T05:23:40.159Z,12.13
2019-02-28T05:26:41.542Z,12.06
2019-02-28T05:29:44.064Z,12.06
2019-02-28T05:32:46.222Z,12.00
2019-02-28T05:35:47.618Z,12.00
2019-02-28T05:38:49.024Z,11.94
2019-02-28T05:41:50.475Z,11.94
2019-02-28T05:44:51.891Z,11.88
2019-02-28T05:47:53.314Z,11.88
2019-02-28T05:50:54.710Z,11.81
2019-02-28T05:53:56.088Z,11.75
2019-02-28T05:56:57.487Z,11.75
2019-02-28T06:00:01.898Z,11.69
2019-02-28T06:03:02.674Z,11.69
2019-02-28T06:06:04.159Z,11.69
2019-02-28T06:09:06.570Z,11.63
2019-02-28T06:12:09.525Z,11.63
2019-02-28T06:15:11.427Z,11.56
2019-02-28T06:18:12.835Z,11.56
2019-02-28T06:21:14.249Z,11.56
2019-02-28T06:24:15.652Z,11.50
2019-02-28T06:27:17.058Z,11.56
2019-02-28T06:30:19.539Z,11.50
2019-02-28T06:33:21.322Z,11.50
2019-02-28T06:36:25.712Z,11.50
2019-02-28T06:39:27.558Z,11.50
2019-02-28T06:42:29.006Z,11.50
2019-02-28T06:45:30.363Z,11.50
2019-02-28T06:48:31.874Z,11.56
2019-02-28T06:51:33.272Z,11.56
2019-02-28T06:54:34.658Z,11.56
2019-02-28T06:57:36.250Z,11.56
2019-02-28T07:00:37.770Z,11.63
2019-02-28T07:03:39.883Z,11.75
2019-02-28T07:06:41.591Z,11.81
2019-02-28T07:09:43.264Z,11.88
2019-02-28T07:12:45.018Z,12.06
2019-02-28T07:15:46.437Z,12.13
2019-02-28T07:18:52.871Z,12.19
2019-02-28T07:21:51.297Z,12.25
2019-02-28T07:24:52.886Z,12.31
2019-02-28T07:27:54.404Z,12.37
2019-02-28T07:30:55.827Z,12.44
2019-02-28T07:33:57.325Z,12.44
2019-02-28T07:36:59.096Z,12.50
2019-02-28T07:40:00.561Z,12.56
2019-02-28T07:43:02.043Z,12.63
2019-02-28T07:46:04.537Z,12.75
2019-02-28T07:49:06.704Z,12.81
2019-02-28T07:52:08.151Z,12.88
2019-02-28T07:55:11.015Z,13.00
2019-02-28T07:58:12.899Z,13.13
2019-02-28T08:01:14.334Z,13.25
2019-02-28T08:04:18.506Z,13.38
2019-02-28T08:07:19.003Z,13.56
2019-02-28T08:10:21.385Z,13.69
2019-02-28T08:13:22.805Z,13.81
2019-02-28T08:16:24.279Z,14.00
2019-02-28T08:19:27.144Z,14.19
2019-02-28T08:22:28.981Z,14.31
2019-02-28T08:25:30.482Z,14.50
2019-02-28T08:28:35.860Z,14.63
2019-02-28T08:31:35.524Z,14.81
2019-02-28T08:34:37.035Z,14.94
2019-02-28T08:37:38.493Z,15.13
2019-02-28T08:40:39.999Z,15.25
2019-02-28T08:43:44.574Z,15.38
2019-02-28T08:46:47.225Z,15.56
2019-02-28T08:49:49.038Z,15.75
2019-02-28T08:52:52.051Z,15.88
2019-02-28T08:55:53.603Z,16.06
2019-02-28T08:58:55.118Z,16.19
2019-02-28T09:01:56.612Z,16.37
2019-02-28T09:04:58.079Z,16.50
2019-02-28T09:07:59.880Z,16.62
2019-02-28T09:11:02.398Z,16.75
2019-02-28T09:14:03.829Z,16.94
2019-02-28T09:17:05.297Z,17.06
2019-02-28T09:20:10.461Z,17.19
2019-02-28T09:23:10.935Z,17.37
2019-02-28T09:26:12.343Z,17.56
2019-02-28T09:29:13.892Z,17.75
2019-02-28T09:32:15.395Z,17.94
2019-02-28T09:35:16.935Z,18.06
2019-02-28T09:38:18.408Z,18.19
2019-02-28T09:41:20.251Z,18.31
2019-02-28T09:44:21.753Z,18.44
2019-02-28T09:47:26.528Z,18.56
2019-02-28T09:50:26.596Z,18.75
2019-02-28T09:53:28.181Z,18.94
2019-02-28T09:56:29.658Z,19.19
2019-02-28T09:59:34.006Z,19.44
2019-02-28T10:02:34.318Z,19.62
2019-02-28T10:05:38.985Z,19.87
2019-02-28T10:08:38.951Z,20.12
2019-02-28T10:11:40.656Z,20.37
2019-02-28T10:14:43.064Z,20.62
2019-02-28T10:17:44.518Z,20.81
2019-02-28T10:20:46.485Z,21.00
2019-02-28T10:23:48.104Z,21.25
2019-02-28T10:26:51.505Z,21.50
2019-02-28T10:29:54.852Z,21.81
2019-02-28T10:32:56.344Z,22.00
2019-02-28T10:35:57.765Z,22.06
2019-02-28T10:38:59.201Z,22.31
2019-02-28T10:42:01.544Z,22.56
2019-02-28T10:45:06.549Z,22.62
2019-02-28T10:48:08.240Z,22.81
2019-02-28T10:51:13.972Z,23.12
2019-02-28T10:54:14.570Z,23.44
2019-02-28T10:57:16.436Z,23.62
2019-02-28T11:00:29.518Z,23.81
2019-02-28T11:03:32.183Z,24.00
2019-02-28T11:06:40.063Z,24.12
2019-02-28T11:09:41.451Z,24.31
2019-02-28T11:12:42.979Z,24.50
2019-02-28T11:15:48.019Z,24.44
2019-02-28T11:18:48.505Z,24.25
2019-02-28T11:21:50.062Z,24.25
2019-02-28T11:24:52.082Z,23.81
2019-02-28T11:27:54.577Z,23.69
2019-02-28T11:30:56.669Z,23.87
2019-02-28T11:33:58.428Z,24.12
2019-02-28T11:36:59.990Z,24.31
2019-02-28T11:40:01.543Z,24.87
2019-02-28T11:43:04.282Z,25.81
2019-02-28T11:46:07.326Z,26.81
2019-02-28T11:49:08.982Z,27.62
2019-02-28T11:52:10.524Z,27.94
2019-02-28T11:55:13.073Z,27.75
2019-02-28T11:58:17.680Z,28.00
2019-02-28T12:01:17.966Z,28.19
2019-02-28T12:04:19.479Z,28.38
2019-02-28T12:07:20.932Z,28.56
2019-02-28T12:10:22.876Z,28.87
2019-02-28T12:13:24.463Z,28.94
2019-02-28T12:16:28.971Z,29.06
2019-02-28T12:19:31.011Z,29.50
2019-02-28T12:22:32.583Z,29.31
2019-02-28T12:25:34.816Z,29.75
2019-02-28T12:28:38.260Z,29.94
2019-02-28T12:31:40.736Z,30.06
2019-02-28T12:34:42.262Z,30.19
2019-02-28T12:37:43.795Z,30.50
2019-02-28T12:40:45.687Z,30.62
2019-02-28T12:43:48.438Z,29.81
2019-02-28T12:46:50.020Z,29.06
2019-02-28T12:49:54.352Z,28.44
2019-02-28T12:52:55.807Z,28.50
2019-02-28T12:55:57.646Z,28.87
2019-02-28T12:58:59.468Z,29.19
2019-02-28T13:02:01.031Z,28.69
2019-02-28T13:05:02.875Z,28.81
2019-02-28T13:08:06.019Z,28.62
2019-02-28T13:11:08.644Z,29.31
2019-02-28T13:14:10.155Z,29.44
2019-02-28T13:17:11.703Z,28.62
2019-02-28T13:20:32.177Z,28.19
2019-02-28T13:23:32.906Z,29.12
2019-02-28T13:26:34.475Z,29.25
2019-02-28T13:29:36.032Z,28.75
2019-02-28T13:32:38.281Z,28.69
2019-02-28T13:35:46.982Z,27.06
2019-02-28T13:38:44.973Z,27.00
2019-02-28T13:41:46.523Z,26.87
2019-02-28T13:44:48.015Z,26.56
2019-02-28T13:47:49.913Z,26.94
2019-02-28T13:50:51.614Z,26.62
2019-02-28T13:53:53.162Z,26.37
2019-02-28T13:56:54.695Z,26.62
2019-02-28T13:59:56.454Z,26.75
2019-02-28T14:03:08.857Z,26.94
2019-02-28T14:06:06.483Z,27.31
2019-02-28T14:09:10.523Z,28.00
2019-02-28T14:12:12.170Z,27.94
2019-02-28T14:15:16.904Z,27.37
2019-02-28T14:18:18.554Z,27.00
2019-02-28T14:21:20.095Z,27.69
2019-02-28T14:24:21.774Z,28.50
2019-02-28T14:27:26.060Z,29.19
2019-02-28T14:30:29.171Z,30.12
2019-02-28T14:33:30.737Z,30.12
2019-02-28T14:36:32.235Z,30.06
2019-02-28T14:39:33.830Z,30.00
2019-02-28T14:42:35.863Z,28.94
2019-02-28T14:45:39.018Z,29.63
2019-02-28T14:48:41.801Z,29.12
2019-02-28T14:51:43.336Z,29.12
2019-02-28T14:54:45.238Z,28.87
2019-02-28T14:57:48.916Z,28.94
2019-02-28T15:00:50.344Z,28.87
2019-02-28T15:03:52.296Z,28.94
2019-02-28T15:06:53.820Z,28.00
2019-02-28T15:09:55.368Z,27.00
2019-02-28T15:12:58.650Z,26.62
2019-02-28T15:16:00.836Z,27.50
2019-02-28T15:19:02.423Z,26.37
2019-02-28T15:22:04.027Z,26.25
2019-02-28T15:25:05.908Z,26.06
2019-02-28T15:28:07.531Z,25.81
2019-02-28T15:31:09.459Z,25.62
2019-02-28T15:34:11.354Z,25.44
2019-02-28T15:37:12.933Z,25.69
2019-02-28T15:40:24.644Z,27.25
2019-02-28T15:43:27.097Z,28.12
2019-02-28T15:46:28.601Z,28.38
2019-02-28T15:49:30.106Z,28.44
2019-02-28T15:52:31.570Z,28.50
2019-02-28T15:55:35.117Z,28.38
2019-02-28T15:58:37.697Z,28.38
2019-02-28T16:01:39.715Z,28.62
2019-02-28T16:04:41.287Z,28.56
2019-02-28T16:07:42.839Z,28.56
2019-02-28T16:10:52.963Z,28.38
2019-02-28T16:13:48.138Z,28.31
2019-02-28T16:16:49.644Z,28.12
2019-02-28T16:19:53.189Z,27.87
2019-02-28T16:22:54.809Z,27.62
2019-02-28T16:25:56.615Z,27.37
2019-02-28T16:29:00.296Z,27.19
2019-02-28T16:32:01.832Z,27.06
2019-02-28T16:35:03.411Z,26.94
2019-02-28T16:38:06.385Z,26.12
2019-02-28T16:41:08.620Z,25.62
2019-02-28T16:44:10.119Z,25.19
2019-02-28T16:47:11.540Z,24.94
2019-02-28T16:50:15.301Z,24.75
2019-02-28T16:53:16.813Z,24.56
2019-02-28T16:56:18.679Z,24.37
2019-02-28T16:59:20.568Z,24.19
2019-02-28T17:02:22.376Z,24.06
2019-02-28T17:05:27.988Z,23.94
2019-02-28T17:08:28.923Z,23.75
2019-02-28T17:11:30.512Z,23.56
2019-02-28T17:14:32.182Z,23.44
2019-02-28T17:17:56.511Z,23.31
2019-02-28T17:20:58.133Z,23.12
2019-02-28T17:24:02.179Z,23.06
2019-02-28T17:27:25.278Z,22.94
2019-02-28T17:30:37.575Z,22.87
2019-02-28T17:33:43.280Z,22.75
2019-02-28T17:36:47.624Z,22.87
2019-02-28T17:39:51.151Z,23.19
2019-02-28T17:42:51.884Z,23.38
2019-02-28T17:45:53.404Z,23.50
2019-02-28T17:49:53.719Z,23.50
2019-02-28T17:53:36.586Z,23.50
2019-02-28T17:57:41.662Z,23.38
2019-02-28T18:01:30.644Z,23.31
2019-02-28T18:05:13.797Z,23.19
2019-02-28T18:08:43.632Z,23.06
2019-02-28T18:12:52.707Z,22.94
2019-02-28T18:16:41.593Z,22.81
2019-02-28T18:20:38.550Z,22.69
2019-02-28T18:24:43.246Z,22.56
2019-02-28T18:28:40.455Z,22.44
2019-02-28T18:31:42.042Z,22.31
2019-02-28T18:34:45.084Z,22.06
2019-02-28T18:37:46.568Z,21.87
2019-02-28T18:40:48.194Z,21.75
2019-02-28T18:43:49.749Z,21.62
2019-02-28T18:46:51.680Z,21.56
2019-02-28T18:49:53.306Z,21.44
2019-02-28T18:52:54.890Z,21.44
2019-02-28T18:55:56.361Z,21.31
2019-02-28T18:58:58.192Z,21.25
2019-02-28T19:01:59.685Z,21.19
2019-02-28T19:05:01.310Z,21.12
2019-02-28T19:08:03.005Z,21.06
2019-02-28T19:11:04.856Z,21.00
2019-02-28T19:14:06.410Z,20.94
2019-02-28T19:17:08.170Z,20.88
2019-02-28T19:20:11.410Z,20.81
2019-02-28T19:23:13.493Z,20.75
2019-02-28T19:26:17.517Z,20.69
2019-02-28T19:29:20.611Z,20.62
2019-02-28T19:32:22.667Z,20.56
2019-02-28T19:35:24.371Z,20.50
2019-02-28T19:38:26.566Z,20.44
2019-02-28T19:41:28.708Z,20.44
2019-02-28T19:44:31.398Z,20.37
2019-02-28T19:47:32.896Z,20.31
2019-02-28T19:50:34.522Z,20.25
2019-02-28T19:53:36.265Z,20.19
2019-02-28T19:56:37.801Z,20.12
2019-02-28T19:59:39.400Z,20.12
2019-02-28T20:02:40.863Z,20.06
2019-02-28T20:05:42.772Z,20.00
2019-02-28T20:08:44.309Z,19.94
2019-02-28T20:11:45.763Z,19.87
2019-02-28T20:14:47.349Z,19.87
2019-02-28T20:17:49.001Z,19.81
2019-02-28T20:20:50.984Z,19.75
2019-02-28T20:23:52.600Z,19.69
2019-02-28T20:26:54.146Z,19.62
2019-02-28T20:29:55.695Z,19.56
2019-02-28T20:32:57.511Z,19.56
2019-02-28T20:35:59.126Z,19.50
2019-02-28T20:39:00.781Z,19.44
2019-02-28T20:42:03.842Z,19.37
2019-02-28T20:45:07.551Z,19.31
2019-02-28T20:48:09.404Z,19.25
2019-02-28T20:51:10.924Z,19.19
2019-02-28T20:54:12.500Z,19.19
2019-02-28T20:57:14.218Z,19.12
2019-02-28T21:00:18.437Z,19.06
2019-02-28T21:03:21.492Z,19.00
2019-02-28T21:06:24.085Z,18.94
2019-02-28T21:09:26.223Z,18.87
2019-02-28T21:12:27.754Z,18.81
2019-02-28T21:15:29.610Z,18.81
2019-02-28T21:18:31.336Z,18.75
2019-02-28T21:21:33.205Z,18.69
2019-02-28T21:24:34.682Z,18.69
2019-02-28T21:27:36.522Z,18.62
2019-02-28T21:30:38.075Z,18.56
2019-02-28T21:33:39.676Z,18.50
2019-02-28T21:36:41.722Z,18.44
2019-02-28T21:39:43.481Z,18.37
2019-02-28T21:42:45.523Z,18.37
2019-02-28T21:45:47.095Z,18.31
2019-02-28T21:48:48.618Z,18.25
2019-02-28T21:51:50.210Z,18.25
2019-02-28T21:54:51.958Z,18.19
2019-02-28T21:57:53.611Z,18.12
2019-02-28T22:00:55.164Z,18.06
2019-02-28T22:03:56.633Z,18.00
2019-02-28T22:06:58.238Z,18.00
2019-02-28T22:10:00.328Z,17.94
2019-02-28T22:13:01.863Z,17.87
2019-02-28T22:16:03.320Z,17.81
2019-02-28T22:19:04.787Z,17.81
2019-02-28T22:22:06.276Z,17.75
2019-02-28T22:25:08.959Z,17.69
2019-02-28T22:28:10.506Z,17.69
2019-02-28T22:31:30.321Z,17.62
2019-02-28T22:34:50.766Z,17.56
2019-02-28T22:37:52.269Z,17.50
2019-02-28T22:40:53.708Z,17.44
2019-02-28T22:43:55.563Z,17.44
2019-02-28T22:46:56.995Z,17.37
2019-02-28T22:49:58.422Z,17.31
2019-02-28T22:53:00.047Z,17.31
2019-02-28T22:56:01.440Z,17.25
2019-02-28T22:59:02.997Z,17.19
2019-02-28T23:02:04.452Z,17.19
2019-02-28T23:05:06.897Z,17.12
2019-02-28T23:08:09.710Z,17.12
2019-02-28T23:11:11.159Z,17.06
2019-02-28T23:14:12.659Z,17.00
2019-02-28T23:17:14.255Z,17.00
2019-02-28T23:20:15.656Z,16.94
2019-02-28T23:23:17.082Z,16.87
2019-02-28T23:26:21.134Z,16.81
2019-02-28T23:29:23.566Z,16.81
2019-02-28T23:32:46.939Z,16.75
2019-02-28T23:35:51.065Z,16.75
2019-02-28T23:38:52.483Z,16.69
2019-02-28T23:41:53.903Z,16.69
2019-02-28T23:44:55.297Z,16.62
2019-02-28T23:47:56.697Z,16.56
2019-02-28T23:50:58.072Z,16.56
2019-02-28T23:53:59.478Z,16.50
2019-02-28T23:57:00.906Z,16.50
